Current Weather Conditions: station 62114

sailwx.info

See reports from other nearby stations

no recent reports received from weather station ID 62114

Tides Pressure Air temp Water temp Dewpoint Dewpoint depression Visibility Wind speed Wind direction Waves Ship positions
date/time (UTC)wind fromknots sea level pressurealtimeterstation pressurevisibilityair tempwater tempwave heightnotes
2016-Sep-25 19:00 210 22 13.3
2016-Sep-25 18:00 200 22 13.2
2016-Sep-25 17:00 210 24 13.2
2016-Sep-25 16:00 200 23 13.1
2016-Sep-25 15:00 200 23 13.3
2016-Sep-25 14:00 200 20 13.4
2016-Sep-25 13:00 200 19 13.5
2016-Sep-25 12:00 200 20 13.7
2016-Sep-25 11:00 190 22 13.8
2016-Sep-25 10:00 190 20 13.6
2016-Sep-25 09:00 190 19 13.2
2016-Sep-25 08:00 180 24 13.8
2016-Sep-25 07:00 180 23 13.9
2016-Sep-25 06:00 180 25 14.6
2016-Sep-25 05:00 180 24 14.4
2016-Sep-25 04:00 180 25 14.4
2016-Sep-25 03:00 180 26 14.7
2016-Sep-25 02:00 180 27 14.8
2016-Sep-25 01:00 190 30 15.3
2016-Sep-25 00:00 180 29 15.1
2016-Sep-24 23:00 180 30 14.9
2016-Sep-24 22:00 180 31 14.9
2016-Sep-24 21:00 180 30 14.8
2016-Sep-24 20:00 180 30 15.0
2016-Sep-24 19:00 190 29 15.1
2016-Sep-24 18:00 190 31 15.0
2016-Sep-24 17:00 190 29 14.7
2016-Sep-24 16:00 190 29 14.5
2016-Sep-24 15:00 180 30 14.5
2016-Sep-24 14:00 180 34 14.5
2016-Sep-24 13:00 180 33 14.4
2016-Sep-24 12:00 180 34 14.3
2016-Sep-24 11:00 180 34 14.2
2016-Sep-24 10:00 170 33 14.0
2016-Sep-24 09:00 180 33 14.0
2016-Sep-24 05:00 190 27 13.8
2016-Sep-24 04:00 200 27 13.8
2016-Sep-24 03:00 190 27 13.8
2016-Sep-24 02:00 190 29 14.0
2016-Sep-24 01:00 190 27 14.2
2016-Sep-24 00:00 190 29 14.2
2016-Sep-23 23:00 190 30 14.2
2016-Sep-23 22:00 180 26 13.8
2016-Sep-23 21:00 180 26 13.5
2016-Sep-23 20:00 190 23 13.3